createdAt,value
2022-12-04T00:00:08.131Z,35.67
2022-12-04T00:02:35.349Z,34.95
2022-12-04T00:05:06.566Z,40.72
2022-12-04T00:07:33.574Z,30.23
2022-12-04T00:10:00.845Z,46.08
2022-12-04T00:12:28.141Z,35.45
2022-12-04T00:17:41.884Z,40.65
2022-12-04T00:20:09.201Z,35.42
2022-12-04T00:22:36.020Z,37.15
2022-12-04T00:25:02.835Z,42.45
2022-12-04T00:27:29.687Z,33.25
2022-12-04T00:29:56.722Z,46.08
2022-12-04T00:32:23.741Z,37.08
2022-12-04T00:34:53.194Z,36.30
2022-12-04T00:37:19.965Z,38.92
2022-12-04T00:39:46.842Z,44.53
2022-12-04T00:42:13.712Z,37.60
2022-12-04T00:44:40.501Z,42.28
2022-12-04T00:47:07.273Z,37.65
2022-12-04T00:49:34.100Z,40.80
2022-12-04T00:52:01.050Z,34.97
2022-12-04T00:54:27.829Z,40.40
2022-12-04T00:56:54.655Z,40.17
2022-12-04T00:59:21.404Z,41.88
2022-12-04T01:01:48.203Z,37.17
2022-12-04T01:04:15.078Z,35.08
2022-12-04T01:06:41.942Z,50.97
2022-12-04T01:09:09.139Z,40.50
2022-12-04T01:11:36.435Z,41.33
2022-12-04T01:14:03.302Z,32.97
2022-12-04T01:16:36.524Z,39.70
2022-12-04T01:19:04.533Z,34.05
2022-12-04T01:21:31.439Z,39.47
2022-12-04T01:23:59.084Z,35.00
2022-12-04T01:26:26.228Z,37.20
2022-12-04T01:28:53.043Z,36.13
2022-12-04T01:31:21.348Z,45.85
2022-12-04T01:33:49.485Z,39.80
2022-12-04T01:36:19.349Z,39.63
2022-12-04T01:38:46.455Z,44.28
2022-12-04T01:41:15.366Z,43.22
2022-12-04T01:43:42.931Z,41.83
2022-12-04T01:46:11.211Z,40.15
2022-12-04T01:48:46.705Z,44.47
2022-12-04T01:51:26.032Z,39.05
2022-12-04T01:53:57.670Z,36.45
2022-12-04T01:56:52.704Z,41.42
2022-12-04T01:59:25.030Z,41.55
2022-12-04T02:02:02.904Z,39.05
2022-12-04T02:04:31.395Z,43.72
2022-12-04T02:06:58.193Z,40.20
2022-12-04T02:09:26.988Z,36.35
2022-12-04T02:12:18.023Z,36.28
2022-12-04T02:14:48.770Z,38.33
2022-12-04T02:17:38.906Z,38.63
2022-12-04T02:20:47.379Z,40.30
2022-12-04T02:23:26.721Z,42.50
2022-12-04T02:25:59.759Z,41.20
2022-12-04T02:28:31.086Z,34.83
2022-12-04T02:31:02.076Z,36.42
2022-12-04T02:34:13.873Z,43.95
2022-12-04T02:36:50.874Z,44.42
2022-12-04T02:39:33.942Z,39.13
2022-12-04T02:42:11.489Z,38.17
2022-12-04T02:44:52.695Z,49.50
2022-12-04T02:47:23.845Z,39.22
2022-12-04T02:50:05.031Z,42.22
2022-12-04T02:52:39.764Z,44.85
2022-12-04T02:55:16.411Z,41.92
2022-12-04T02:57:51.265Z,45.47
2022-12-04T03:00:19.035Z,47.92
2022-12-04T03:02:57.314Z,44.00
2022-12-04T03:05:33.889Z,48.28
2022-12-04T03:08:07.885Z,38.60
2022-12-04T03:10:40.592Z,49.25
2022-12-04T03:13:21.872Z,43.33
2022-12-04T03:15:52.622Z,42.95
2022-12-04T03:18:26.693Z,41.35
2022-12-04T03:21:02.118Z,37.42
2022-12-04T03:23:37.611Z,44.53
2022-12-04T03:26:22.843Z,45.97
2022-12-04T03:29:11.667Z,42.53
2022-12-04T03:31:45.175Z,40.75
2022-12-04T03:34:15.990Z,50.15
2022-12-04T03:36:51.071Z,47.80
2022-12-04T03:39:26.799Z,42.83
2022-12-04T03:42:13.823Z,40.45
2022-12-04T03:44:47.373Z,41.95
2022-12-04T03:47:25.320Z,44.70
2022-12-04T03:50:30.420Z,46.75
2022-12-04T03:53:20.774Z,48.20
2022-12-04T03:55:55.678Z,40.20
2022-12-04T03:58:28.368Z,41.80
2022-12-04T04:00:56.953Z,49.45
2022-12-04T04:03:30.163Z,39.28
2022-12-04T04:06:06.081Z,42.42
2022-12-04T04:08:38.829Z,52.60
2022-12-04T04:11:27.227Z,42.85
2022-12-04T04:14:20.523Z,45.67
2022-12-04T04:17:15.839Z,45.58
2022-12-04T04:20:03.445Z,41.92
2022-12-04T04:22:53.014Z,43.70
2022-12-04T04:25:25.720Z,39.35
2022-12-04T04:27:58.506Z,47.05
2022-12-04T04:30:27.664Z,43.28
2022-12-04T04:33:11.550Z,49.25
2022-12-04T04:35:59.028Z,44.10
2022-12-04T04:38:33.351Z,45.75
2022-12-04T04:41:17.460Z,35.85
2022-12-04T04:43:57.655Z,45.53
2022-12-04T04:46:38.340Z,49.42
2022-12-04T04:49:09.115Z,42.00
2022-12-04T04:51:37.150Z,43.60
2022-12-04T04:54:08.974Z,41.95
2022-12-04T04:56:43.635Z,40.50
2022-12-04T04:59:11.557Z,46.97
2022-12-04T05:01:39.829Z,37.55
2022-12-04T05:04:07.516Z,40.60
2022-12-04T05:06:34.713Z,43.25
2022-12-04T05:09:01.728Z,45.55
2022-12-04T05:11:28.858Z,42.67
2022-12-04T05:13:55.791Z,42.90
2022-12-04T05:16:23.439Z,50.03
2022-12-04T05:19:09.201Z,38.72
2022-12-04T05:21:36.051Z,39.22
2022-12-04T05:24:02.915Z,40.00
2022-12-04T05:26:29.730Z,39.00
2022-12-04T05:28:56.586Z,41.72
2022-12-04T05:31:23.406Z,38.55
2022-12-04T05:33:50.227Z,45.97
2022-12-04T05:36:17.013Z,37.78
2022-12-04T05:38:43.777Z,40.25
2022-12-04T05:41:10.620Z,38.28
2022-12-04T05:43:37.539Z,38.30
2022-12-04T05:46:09.045Z,45.97
2022-12-04T05:48:36.375Z,41.85
2022-12-04T05:51:10.673Z,37.17
2022-12-04T05:53:38.428Z,37.15
2022-12-04T05:56:07.379Z,40.58
2022-12-04T05:58:38.325Z,36.50
2022-12-04T06:01:13.409Z,44.80
2022-12-04T06:03:40.233Z,36.67
2022-12-04T06:06:24.730Z,43.95
2022-12-04T06:08:53.861Z,32.53
2022-12-04T06:11:26.109Z,41.33
2022-12-04T06:13:53.346Z,47.20
2022-12-04T06:16:29.819Z,43.53
2022-12-04T06:18:59.251Z,36.22
2022-12-04T06:21:29.183Z,42.92
2022-12-04T06:23:56.342Z,36.83
2022-12-04T06:26:24.069Z,38.65
2022-12-04T06:28:53.588Z,41.58
2022-12-04T06:31:20.596Z,44.83
2022-12-04T06:33:47.595Z,44.60
2022-12-04T06:36:18.168Z,34.88
2022-12-04T06:38:45.890Z,36.55
2022-12-04T06:41:15.434Z,34.38
2022-12-04T06:43:42.462Z,36.60
2022-12-04T06:46:33.234Z,39.60
2022-12-04T06:49:01.938Z,37.90
2022-12-04T06:51:31.951Z,39.13
2022-12-04T06:53:59.180Z,39.00
2022-12-04T06:56:28.406Z,37.42
2022-12-04T06:58:57.498Z,44.40
2022-12-04T07:01:27.798Z,36.83
2022-12-04T07:03:56.155Z,34.53
2022-12-04T07:06:28.738Z,32.08
2022-12-04T07:08:59.466Z,34.15
2022-12-04T07:11:26.454Z,40.55
2022-12-04T07:13:54.335Z,37.42
2022-12-04T07:16:22.368Z,36.28
2022-12-04T07:18:56.715Z,35.97
2022-12-04T07:21:29.018Z,37.42
2022-12-04T07:23:58.431Z,47.38
2022-12-04T07:26:27.094Z,43.38
2022-12-04T07:28:55.333Z,40.53
2022-12-04T07:31:23.998Z,38.58
2022-12-04T07:33:51.473Z,40.45
2022-12-04T07:36:20.623Z,35.97
2022-12-04T07:38:47.613Z,52.08
2022-12-04T07:41:15.200Z,45.83
2022-12-04T07:43:42.668Z,42.63
2022-12-04T07:46:14.447Z,38.67
2022-12-04T07:48:41.435Z,34.67
2022-12-04T07:51:11.132Z,48.65
2022-12-04T07:53:38.570Z,40.60
2022-12-04T07:56:06.661Z,44.85
2022-12-04T07:58:34.252Z,44.33
2022-12-04T08:01:10.938Z,38.95
2022-12-04T08:03:45.263Z,45.72
2022-12-04T08:06:14.788Z,44.88
2022-12-04T08:08:41.735Z,39.88
2022-12-04T08:11:11.623Z,38.95
2022-12-04T08:13:38.628Z,39.92
2022-12-04T08:16:07.240Z,39.83
2022-12-04T08:18:34.535Z,45.08
2022-12-04T08:21:08.829Z,46.35
2022-12-04T08:26:03.013Z,42.22
2022-12-04T08:28:30.307Z,39.45
2022-12-04T08:31:21.757Z,46.88
2022-12-04T08:33:50.108Z,38.33
2022-12-04T08:36:19.609Z,44.40
2022-12-04T08:38:47.470Z,40.83
2022-12-04T08:41:16.230Z,43.72
2022-12-04T08:43:43.169Z,47.03
2022-12-04T08:46:12.733Z,42.55
2022-12-04T08:48:40.136Z,43.85
2022-12-04T08:51:08.237Z,47.63
2022-12-04T08:53:36.474Z,36.60
2022-12-04T08:56:04.141Z,44.67
2022-12-04T08:58:31.003Z,40.47
2022-12-04T09:01:04.605Z,44.47
2022-12-04T09:03:31.525Z,43.33
2022-12-04T09:06:02.518Z,38.75
2022-12-04T09:08:29.501Z,40.00
2022-12-04T09:10:56.663Z,39.67
2022-12-04T09:13:23.469Z,36.85
2022-12-04T09:15:50.384Z,42.40
2022-12-04T09:18:17.216Z,39.72
2022-12-04T09:20:43.998Z,40.13
2022-12-04T09:23:10.844Z,48.00
2022-12-04T09:25:38.158Z,42.53
2022-12-04T09:28:05.295Z,46.08
2022-12-04T09:30:32.174Z,40.97
2022-12-04T09:32:58.988Z,39.67
2022-12-04T09:35:25.884Z,37.60
2022-12-04T09:37:52.729Z,46.22
2022-12-04T09:40:35.214Z,45.60
2022-12-04T09:43:32.417Z,47.08
2022-12-04T09:46:04.167Z,41.08
2022-12-04T09:48:39.887Z,44.28
2022-12-04T09:51:18.301Z,44.05
2022-12-04T09:54:10.588Z,53.50
2022-12-04T09:56:37.527Z,37.50
2022-12-04T09:59:27.003Z,37.28
2022-12-04T10:02:00.896Z,36.90
2022-12-04T10:04:27.762Z,34.92
2022-12-04T10:07:15.921Z,45.28
2022-12-04T10:09:47.004Z,41.15
2022-12-04T10:12:46.509Z,35.40
2022-12-04T10:15:43.870Z,35.25
2022-12-04T10:18:39.412Z,36.08
2022-12-04T10:21:30.488Z,43.40
2022-12-04T10:24:15.409Z,35.58
2022-12-04T10:26:46.288Z,34.90
2022-12-04T10:29:30.616Z,40.85
2022-12-04T10:32:06.350Z,35.00
2022-12-04T10:34:33.275Z,38.30
2022-12-04T10:37:11.583Z,40.25
2022-12-04T10:39:50.590Z,34.50
2022-12-04T10:42:27.114Z,34.92
2022-12-04T10:44:54.713Z,32.85
2022-12-04T10:47:24.690Z,42.05
2022-12-04T10:50:00.835Z,39.42
2022-12-04T10:52:27.807Z,30.30
2022-12-04T10:54:59.806Z,32.53
2022-12-04T10:57:39.547Z,32.78
2022-12-04T11:00:27.055Z,30.95
2022-12-04T11:02:55.956Z,32.65
2022-12-04T11:05:24.804Z,32.05
2022-12-04T11:07:52.356Z,27.40
2022-12-04T11:10:31.985Z,28.85
2022-12-04T11:13:02.218Z,26.48
2022-12-04T11:15:29.499Z,25.75
2022-12-04T11:18:07.750Z,21.10
2022-12-04T11:20:34.778Z,23.98
2022-12-04T11:23:01.619Z,24.08
2022-12-04T11:25:35.303Z,21.70
2022-12-04T11:28:03.660Z,24.70
2022-12-04T11:30:34.124Z,24.90
2022-12-04T11:33:03.116Z,24.27
2022-12-04T11:35:31.419Z,21.70
2022-12-04T11:38:13.798Z,20.80
2022-12-04T11:40:50.320Z,23.33
2022-12-04T11:43:19.050Z,27.52
2022-12-04T11:46:01.951Z,21.67
2022-12-04T11:48:41.010Z,22.13
2022-12-04T11:51:45.615Z,26.92
2022-12-04T11:54:47.706Z,26.50
2022-12-04T11:57:29.776Z,20.25
2022-12-04T12:00:02.305Z,26.80
2022-12-04T12:02:50.329Z,21.35
2022-12-04T12:05:20.330Z,25.42
2022-12-04T12:08:22.529Z,29.30
2022-12-04T12:11:08.188Z,24.73
2022-12-04T12:14:19.194Z,24.95
2022-12-04T12:17:04.850Z,21.73
2022-12-04T12:19:37.587Z,22.95
2022-12-04T12:22:28.338Z,18.58
2022-12-04T12:25:13.959Z,27.20
2022-12-04T12:27:56.084Z,28.10
2022-12-04T12:30:24.350Z,30.55
2022-12-04T12:33:10.895Z,24.88
2022-12-04T12:35:40.570Z,21.30
2022-12-04T12:38:13.235Z,30.30
2022-12-04T12:40:41.763Z,24.75
2022-12-04T12:43:27.221Z,28.63
2022-12-04T12:46:09.510Z,24.17
2022-12-04T12:48:46.162Z,26.65
2022-12-04T12:51:51.963Z,27.40
2022-12-04T12:54:34.002Z,22.30
2022-12-04T12:57:14.875Z,31.27
2022-12-04T12:59:53.116Z,23.23
2022-12-04T13:02:30.527Z,24.48
2022-12-04T13:05:10.152Z,25.33
2022-12-04T13:08:06.346Z,27.80
2022-12-04T13:10:42.415Z,27.63
2022-12-04T13:13:20.248Z,19.27
2022-12-04T13:15:53.638Z,25.73
2022-12-04T13:18:30.505Z,23.40
2022-12-04T13:21:01.672Z,26.08
2022-12-04T13:23:52.967Z,27.63
2022-12-04T13:26:52.258Z,24.88
2022-12-04T13:29:44.608Z,29.52
2022-12-04T13:32:30.217Z,27.38
2022-12-04T13:35:15.930Z,22.08
2022-12-04T13:38:02.730Z,24.48
2022-12-04T13:40:38.882Z,23.60
2022-12-04T13:43:33.243Z,22.98
2022-12-04T13:46:07.566Z,31.90
2022-12-04T13:51:17.283Z,24.35
2022-12-04T13:53:44.226Z,28.30
2022-12-04T13:56:29.894Z,28.20
2022-12-04T13:59:04.900Z,25.48
2022-12-04T14:01:40.348Z,24.20
2022-12-04T14:04:08.281Z,26.50
2022-12-04T14:06:42.292Z,31.42
2022-12-04T14:09:27.436Z,26.15
2022-12-04T14:12:03.731Z,26.33
2022-12-04T14:14:39.857Z,30.80
2022-12-04T14:17:25.444Z,29.55
2022-12-04T14:20:23.550Z,27.30
2022-12-04T14:22:50.461Z,31.15
2022-12-04T14:25:25.328Z,26.35
2022-12-04T14:27:54.068Z,30.98
2022-12-04T14:30:26.004Z,31.00
2022-12-04T14:33:08.707Z,29.95
2022-12-04T14:35:44.080Z,28.85
2022-12-04T14:38:18.869Z,29.40
2022-12-04T14:40:49.553Z,25.42
2022-12-04T14:43:20.496Z,35.25
2022-12-04T14:45:57.803Z,28.27
2022-12-04T14:48:55.212Z,28.88
2022-12-04T14:51:30.084Z,29.90
2022-12-04T14:54:35.097Z,33.47
2022-12-04T14:57:26.888Z,30.73
2022-12-04T14:59:54.911Z,30.48
2022-12-04T15:02:34.873Z,24.75
2022-12-04T15:05:03.429Z,29.40
2022-12-04T15:07:32.294Z,33.88
2022-12-04T15:10:20.838Z,30.50
2022-12-04T15:12:53.421Z,29.23
2022-12-04T15:15:25.830Z,23.38
2022-12-04T15:18:18.323Z,26.02
2022-12-04T15:20:58.520Z,29.73
2022-12-04T15:23:34.798Z,31.30
2022-12-04T15:26:09.912Z,25.05
2022-12-04T15:28:59.929Z,35.53
2022-12-04T15:31:43.648Z,34.75
2022-12-04T15:34:16.113Z,30.63
2022-12-04T15:37:00.722Z,27.42
2022-12-04T15:42:27.157Z,28.10
2022-12-04T15:45:01.162Z,23.55
2022-12-04T15:47:37.268Z,29.92
2022-12-04T15:50:08.847Z,32.45
2022-12-04T15:52:37.064Z,28.27
2022-12-04T15:55:08.360Z,35.05
2022-12-04T15:57:42.452Z,28.52
2022-12-04T16:00:21.701Z,23.55
2022-12-04T16:02:49.550Z,21.65
2022-12-04T16:05:22.383Z,34.25
2022-12-04T16:07:52.665Z,31.20
2022-12-04T16:10:32.015Z,29.20
2022-12-04T16:13:04.428Z,30.50
2022-12-04T16:15:42.148Z,24.08
2022-12-04T16:18:14.139Z,33.55
2022-12-04T16:20:41.503Z,25.98
2022-12-04T16:23:09.417Z,28.45
2022-12-04T16:25:36.175Z,27.77
2022-12-04T16:28:03.085Z,22.83
2022-12-04T16:30:33.383Z,23.75
2022-12-04T16:33:00.187Z,28.80
2022-12-04T16:35:27.193Z,24.80
2022-12-04T16:37:54.009Z,21.67
2022-12-04T16:40:20.910Z,31.67
2022-12-04T16:42:47.921Z,32.00
2022-12-04T16:45:31.231Z,23.95
2022-12-04T16:47:58.573Z,23.77
2022-12-04T16:50:26.576Z,31.05
2022-12-04T16:52:54.274Z,24.52
2022-12-04T16:55:23.766Z,20.80
2022-12-04T16:57:50.711Z,21.55
2022-12-04T17:00:18.626Z,31.00
2022-12-04T17:02:46.272Z,26.17
2022-12-04T17:05:21.665Z,25.20
2022-12-04T17:07:48.958Z,37.75
2022-12-04T17:10:20.324Z,27.85
2022-12-04T17:12:53.614Z,28.63
2022-12-04T17:15:20.828Z,29.75
2022-12-04T17:17:47.739Z,28.58
2022-12-04T17:20:17.167Z,32.03
2022-12-04T17:22:44.138Z,25.55
2022-12-04T17:25:12.028Z,34.40
2022-12-04T17:27:39.102Z,27.58
2022-12-04T17:30:07.595Z,23.98
2022-12-04T17:32:37.361Z,25.70
2022-12-04T17:35:06.219Z,26.77
2022-12-04T17:37:33.871Z,29.33
2022-12-04T17:40:00.843Z,30.75
2022-12-04T17:42:28.197Z,22.13
2022-12-04T17:44:55.458Z,28.65
2022-12-04T17:47:22.598Z,32.10
2022-12-04T17:49:49.454Z,28.48
2022-12-04T17:52:16.313Z,26.80
2022-12-04T17:54:43.114Z,34.28
2022-12-04T17:57:10.360Z,33.67
2022-12-04T17:59:37.250Z,36.42
2022-12-04T18:02:04.066Z,25.98
2022-12-04T18:04:30.886Z,30.60
2022-12-04T18:06:57.739Z,30.85
2022-12-04T18:09:24.619Z,29.52
2022-12-04T18:11:51.508Z,23.23
2022-12-04T18:14:22.154Z,30.63
2022-12-04T18:16:53.130Z,28.92
2022-12-04T18:19:22.467Z,32.28
2022-12-04T18:21:50.080Z,29.85
2022-12-04T18:24:17.904Z,26.85
2022-12-04T18:26:48.064Z,26.23
2022-12-04T18:29:26.590Z,26.85
2022-12-04T18:31:53.875Z,32.13
2022-12-04T18:34:21.016Z,28.05
2022-12-04T18:36:48.242Z,30.10
2022-12-04T18:39:18.454Z,26.83
2022-12-04T18:41:45.676Z,26.70
2022-12-04T18:44:13.268Z,32.50
2022-12-04T18:46:41.089Z,27.02
2022-12-04T18:49:09.221Z,30.40
2022-12-04T18:51:43.669Z,29.98
2022-12-04T18:54:21.410Z,31.13
2022-12-04T18:56:49.034Z,27.77
2022-12-04T18:59:27.163Z,25.48
2022-12-04T19:01:54.684Z,32.50
2022-12-04T19:04:23.993Z,23.60
2022-12-04T19:06:55.842Z,30.70
2022-12-04T19:09:47.387Z,24.77
2022-12-04T19:12:12.447Z,27.50
2022-12-04T19:14:40.017Z,27.55
2022-12-04T19:17:07.239Z,29.40
2022-12-04T19:19:34.069Z,29.25
2022-12-04T19:22:02.043Z,30.52
2022-12-04T19:24:28.943Z,28.23
2022-12-04T19:26:55.859Z,24.30
2022-12-04T19:29:22.886Z,24.63
2022-12-04T19:31:52.462Z,26.00
2022-12-04T19:34:23.031Z,29.15
2022-12-04T19:36:50.152Z,30.85
2022-12-04T19:39:17.024Z,22.55
2022-12-04T19:41:43.879Z,24.08
2022-12-04T19:44:40.174Z,28.65
2022-12-04T19:46:57.573Z,19.83
2022-12-04T19:49:24.413Z,27.48
2022-12-04T19:51:51.438Z,28.50
2022-12-04T19:54:18.535Z,24.33
2022-12-04T19:56:50.979Z,22.17
2022-12-04T19:59:19.848Z,24.73
2022-12-04T20:01:47.226Z,25.17
2022-12-04T20:04:14.166Z,33.00
2022-12-04T20:06:44.412Z,26.10
2022-12-04T20:09:14.353Z,28.27
2022-12-04T20:11:42.045Z,32.60
2022-12-04T20:14:10.072Z,32.05
2022-12-04T20:16:40.018Z,29.38
2022-12-04T20:19:08.871Z,28.40
2022-12-04T20:21:35.730Z,34.75
2022-12-04T20:24:04.815Z,27.20
2022-12-04T20:26:38.308Z,25.80
2022-12-04T20:29:07.259Z,26.95
2022-12-04T20:31:40.245Z,23.42
2022-12-04T20:34:11.289Z,25.08
2022-12-04T20:36:40.741Z,27.10
2022-12-04T20:39:08.852Z,25.70
2022-12-04T20:41:36.485Z,24.58
2022-12-04T20:44:06.152Z,24.02
2022-12-04T20:46:36.089Z,27.60
2022-12-04T20:49:05.793Z,30.13
2022-12-04T20:51:38.767Z,26.45
2022-12-04T20:54:07.238Z,32.78
2022-12-04T20:56:36.149Z,22.05
2022-12-04T20:59:06.103Z,29.88
2022-12-04T21:01:33.545Z,26.73
2022-12-04T21:04:01.476Z,30.20
2022-12-04T21:06:37.374Z,30.67
2022-12-04T21:09:06.540Z,37.88
2022-12-04T21:11:36.511Z,38.92
2022-12-04T21:14:23.732Z,30.92
2022-12-04T21:16:50.888Z,30.65
2022-12-04T21:19:19.811Z,28.40
2022-12-04T21:21:47.039Z,37.25
2022-12-04T21:24:15.713Z,27.40
2022-12-04T21:26:43.123Z,31.60
2022-12-04T21:29:10.516Z,31.60
2022-12-04T21:31:38.436Z,29.90
2022-12-04T21:34:08.790Z,30.33
2022-12-04T21:36:35.860Z,29.75
2022-12-04T21:39:03.255Z,26.73
2022-12-04T21:41:48.946Z,31.00
2022-12-04T21:44:18.185Z,26.05
2022-12-04T21:46:46.245Z,30.73
2022-12-04T21:49:13.994Z,26.00
2022-12-04T21:51:56.676Z,24.92
2022-12-04T21:54:24.796Z,32.38
2022-12-04T21:56:51.638Z,32.03
2022-12-04T21:59:18.655Z,33.88
2022-12-04T22:01:45.958Z,21.35
2022-12-04T22:04:13.066Z,32.85
2022-12-04T22:06:40.086Z,26.42
2022-12-04T22:09:09.235Z,34.83
2022-12-04T22:11:36.534Z,32.13
2022-12-04T22:14:03.597Z,33.33
2022-12-04T22:16:32.194Z,31.23
2022-12-04T22:19:00.871Z,33.03
2022-12-04T22:21:28.488Z,25.30
2022-12-04T22:24:00.195Z,31.77
2022-12-04T22:26:28.538Z,30.65
2022-12-04T22:28:56.070Z,28.13
2022-12-04T22:31:25.850Z,37.65
2022-12-04T22:33:54.179Z,25.65
2022-12-04T22:36:26.706Z,28.08
2022-12-04T22:39:10.415Z,30.83
2022-12-04T22:41:38.594Z,28.92
2022-12-04T22:44:06.070Z,25.50
2022-12-04T22:46:33.670Z,27.98
2022-12-04T22:49:00.674Z,23.50
2022-12-04T22:51:28.442Z,25.58
2022-12-04T22:53:57.385Z,25.77
2022-12-04T22:56:27.983Z,25.67
2022-12-04T22:58:55.264Z,24.30
2022-12-04T23:01:27.718Z,26.00
2022-12-04T23:03:55.180Z,33.53
2022-12-04T23:06:24.757Z,26.27
2022-12-04T23:09:00.286Z,25.45
2022-12-04T23:11:28.017Z,23.88
2022-12-04T23:14:00.787Z,24.38
2022-12-04T23:16:30.890Z,22.83
2022-12-04T23:18:57.896Z,23.58
2022-12-04T23:21:25.182Z,25.65
2022-12-04T23:23:53.588Z,26.52
2022-12-04T23:26:25.830Z,19.17
2022-12-04T23:28:52.721Z,22.75
2022-12-04T23:31:19.919Z,23.70
2022-12-04T23:33:46.834Z,18.83
2022-12-04T23:36:14.017Z,24.10
2022-12-04T23:38:42.347Z,19.80
2022-12-04T23:41:14.162Z,21.52
2022-12-04T23:43:42.160Z,23.88
2022-12-04T23:46:11.533Z,24.52
2022-12-04T23:48:40.212Z,17.25
2022-12-04T23:51:08.346Z,29.55
2022-12-04T23:53:35.616Z,23.38
2022-12-04T23:56:05.173Z,26.92
2022-12-04T23:58:33.034Z,24.55
